Time;durP1;ratioP1;P1;durP2;ratioP2;P2;SDS_P1;SDS_P2;PMS_P1;PMS_P2;Temp;Humidity;BMP_temperature;BMP_pressure;BME280_temperature;BME280_humidity;BME280_pressure;Samples;Min_cycle;Max_cycle;Signal;HPM_P1;HPM_P2
2023/04/21 08:06:24;;;;;;;33.60;22.85;;;;;;;9.61;100.00;101159.19;5106416;27;20753;-69
2023/04/21 08:08:49;;;;;;;33.22;25.80;;;;;;;9.61;100.00;101151.09;5088602;28;20040;-70
2023/04/21 08:11:14;;;;;;;33.55;25.25;;;;;;;9.69;100.00;101153.59;5090155;28;20035;-71
2023/04/21 08:13:40;;;;;;;31.17;23.88;;;;;;;9.79;100.00;101146.91;5089832;28;20358;-71
2023/04/21 08:16:05;;;;;;;30.90;23.60;;;;;;;9.82;100.00;101151.88;5103582;28;20149;-71
2023/04/21 08:18:30;;;;;;;30.80;23.42;;;;;;;9.87;100.00;101154.78;5108852;28;20024;-71
2023/04/21 08:20:56;;;;;;;28.17;22.25;;;;;;;9.91;100.00;101145.19;5110408;28;20077;-70
2023/04/21 08:23:22;;;;;;;29.02;23.13;;;;;;;9.95;100.00;101151.84;5110322;28;20019;-70
2023/04/21 08:25:47;;;;;;;27.17;21.75;;;;;;;10.00;100.00;101143.09;5108636;28;20019;-70
2023/04/21 08:28:14;;;;;;;23.65;20.42;;;;;;;10.05;100.00;101149.50;5108864;28;20066;-70
2023/04/21 08:30:39;;;;;;;23.77;18.70;;;;;;;10.06;100.00;101151.16;5094130;28;20020;-70
2023/04/21 08:33:07;;;;;;;23.70;20.42;;;;;;;10.13;100.00;101147.59;5089750;28;20039;-70
2023/04/21 08:35:33;;;;;;;25.05;20.42;;;;;;;10.19;100.00;101146.75;5091766;28;20215;-70
2023/04/21 08:37:58;;;;;;;22.90;20.25;;;;;;;10.23;100.00;101140.69;5108182;28;20019;-71
2023/04/21 08:40:32;;;;;;;22.55;19.23;;;;;;;10.32;100.00;101140.44;5109792;28;20094;-71
2023/04/21 08:42:57;;;;;;;22.33;18.77;;;;;;;10.41;100.00;101139.19;5109932;28;20024;-71
2023/04/21 08:45:22;;;;;;;24.48;19.67;;;;;;;10.47;100.00;101138.31;5096015;28;20066;-71
2023/04/21 08:47:48;;;;;;;23.58;19.90;;;;;;;10.48;100.00;101137.28;5087681;28;20073;-70
2023/04/21 08:50:13;;;;;;;23.92;19.90;;;;;;;10.50;100.00;101137.88;5088908;28;20029;-70
2023/04/21 08:52:39;;;;;;;23.25;19.67;;;;;;;10.50;100.00;101137.06;5109321;28;20077;-71
2023/04/21 08:55:06;;;;;;;21.75;18.33;;;;;;;10.57;100.00;101144.09;5108357;28;20047;-71
2023/04/21 08:57:31;;;;;;;21.92;18.77;;;;;;;10.61;100.00;101141.75;5108116;28;20020;-71
2023/04/21 08:59:57;;;;;;;19.92;16.95;;;;;;;10.65;100.00;101140.28;5096994;28;20017;-71
2023/04/21 09:02:22;;;;;;;19.73;17.25;;;;;;;10.73;100.00;101142.72;5086970;28;20034;-71
2023/04/21 09:04:50;;;;;;;19.92;17.25;;;;;;;10.81;100.00;101128.94;5088579;28;20048;-71
2023/04/21 09:07:36;;;;;;;18.08;16.05;;;;;;;10.93;100.00;101131.75;5087724;28;20029;-72
2023/04/21 09:10:03;;;;;;;20.80;15.73;;;;;;;11.00;100.00;101120.84;5101349;28;20482;-72
2023/04/21 09:12:29;;;;;;;18.75;16.40;;;;;;;11.06;100.00;101128.09;5108823;28;20028;-72
2023/04/21 09:14:56;;;;;;;19.10;16.42;;;;;;;11.09;100.00;101119.53;5093350;28;20032;-72
2023/04/21 09:17:31;;;;;;;19.55;15.95;;;;;;;11.21;100.00;101124.22;5085663;28;20030;-70
2023/04/21 09:19:56;;;;;;;16.90;15.10;;;;;;;11.26;100.00;101117.09;5095302;28;20090;-71
2023/04/21 09:22:26;;;;;;;16.20;14.50;;;;;;;11.38;100.00;101116.34;5095417;28;20034;-72
2023/04/21 09:24:57;;;;;;;17.45;15.50;;;;;;;11.54;100.00;101113.06;5093977;28;20036;-71
2023/04/21 09:27:22;;;;;;;18.30;14.32;;;;;;;11.70;100.00;101114.34;5077201;28;20032;-72
2023/04/21 09:29:48;;;;;;;17.45;13.90;;;;;;;11.86;100.00;101112.91;5074738;28;20913;-72
2023/04/21 09:32:19;;;;;;;18.80;16.33;;;;;;;11.98;100.00;101121.97;5075183;28;20025;-72
2023/04/21 09:34:45;;;;;;;19.08;16.45;;;;;;;12.03;100.00;101124.00;5073608;28;20169;-73
2023/04/21 09:37:13;;;;;;;20.80;16.20;;;;;;;12.06;100.00;101131.66;5085314;28;20060;-74
2023/04/21 09:39:38;;;;;;;18.83;16.58;;;;;;;12.10;100.00;101121.22;5082874;28;20552;-74
2023/04/21 09:42:04;;;;;;;18.67;15.15;;;;;;;12.20;100.00;101118.78;5095314;28;20067;-74
2023/04/21 09:44:30;;;;;;;13.65;12.20;;;;;;;12.26;100.00;101120.56;5093790;28;20115;-73
2023/04/21 09:47:02;;;;;;;16.00;12.80;;;;;;;12.38;100.00;101121.44;5088904;28;20016;-73
2023/04/21 09:49:34;;;;;;;13.65;12.13;;;;;;;12.42;100.00;101110.94;5082203;28;20028;-73
2023/04/21 09:52:02;;;;;;;14.10;12.70;;;;;;;12.51;100.00;101106.84;5078504;28;20417;-72
2023/04/21 09:54:32;;;;;;;15.75;12.30;;;;;;;12.53;99.73;101112.03;5083137;28;20553;-74
2023/04/21 09:57:03;;;;;;;13.38;11.98;;;;;;;12.57;100.00;101111.34;5090838;28;20024;-72
2023/04/21 09:59:34;;;;;;;16.15;10.90;;;;;;;12.68;91.81;101109.75;5093637;28;20020;-71
2023/04/21 10:02:03;;;;;;;12.35;10.57;;;;;;;12.75;89.77;101105.00;5092367;28;20027;-74
2023/04/21 10:04:30;;;;;;;12.52;10.75;;;;;;;12.84;93.17;101105.50;5094000;28;20116;-73
2023/04/21 10:06:57;;;;;;;12.63;10.75;;;;;;;12.96;88.31;101100.09;5094581;28;20031;-72
2023/04/21 10:09:26;;;;;;;12.43;10.80;;;;;;;13.08;86.28;101100.09;5081964;28;20162;-73
2023/04/21 10:11:54;;;;;;;13.20;10.93;;;;;;;13.22;91.91;101092.53;5073880;28;20089;-70
2023/04/21 10:14:19;;;;;;;14.13;11.57;;;;;;;13.33;87.88;101094.44;5093776;28;20024;-70
2023/04/21 10:16:55;;;;;;;17.42;14.77;;;;;;;13.42;100.00;101094.91;5090811;28;20463;-71
2023/04/21 10:19:26;;;;;;;18.40;16.05;;;;;;;13.42;100.00;101086.75;5094557;28;20054;-71
2023/04/21 10:21:56;;;;;;;25.42;16.65;;;;;;;13.53;100.00;101088.66;5094004;28;20020;-74
2023/04/21 10:24:22;;;;;;;17.90;15.93;;;;;;;13.39;90.94;101082.66;5092846;28;20027;-72
2023/04/21 10:26:49;;;;;;;18.02;16.15;;;;;;;13.34;97.39;101077.06;5090240;28;20367;-73
2023/04/21 10:29:32;;;;;;;18.80;15.13;;;;;;;13.22;89.59;101077.03;5072691;28;20115;-72
2023/04/21 10:31:58;;;;;;;16.75;14.93;;;;;;;13.34;94.66;101079.78;5072789;28;20035;-73
2023/04/21 10:34:35;;;;;;;18.15;15.05;;;;;;;13.39;89.05;101068.19;5073274;28;20100;-73
2023/04/21 10:37:03;;;;;;;14.85;13.45;;;;;;;13.51;90.06;101068.19;5073332;28;20557;-72
2023/04/21 10:39:50;;;;;;;16.08;14.38;;;;;;;13.56;89.81;101060.97;5073018;28;20025;-81
2023/04/21 10:42:15;;;;;;;14.60;13.15;;;;;;;13.64;84.26;101052.44;5073670;28;20027;-73
2023/04/21 10:44:44;;;;;;;19.30;12.40;;;;;;;13.74;88.06;101057.28;5084057;28;20036;-71
2023/04/21 10:47:10;;;;;;;16.40;13.30;;;;;;;13.85;86.98;101050.13;5086094;28;20103;-71
2023/04/21 10:49:39;;;;;;;16.40;14.50;;;;;;;13.77;84.31;101056.78;5072891;28;20103;-72
2023/04/21 10:52:07;;;;;;;16.83;14.40;;;;;;;13.75;86.92;101047.22;5072006;28;20218;-72
2023/04/21 10:54:36;;;;;;;15.13;13.52;;;;;;;13.80;84.19;101055.50;5086000;28;20027;-73
2023/04/21 10:57:06;;;;;;;15.98;14.27;;;;;;;13.67;84.14;101051.13;5073245;28;20460;-72
2023/04/21 10:59:33;;;;;;;15.45;13.65;;;;;;;13.70;86.11;101045.22;5078048;28;20016;-72
2023/04/21 11:01:59;;;;;;;15.55;13.93;;;;;;;13.76;84.64;101032.53;5070636;28;20029;-73
2023/04/21 11:04:24;;;;;;;15.20;13.15;;;;;;;13.85;88.66;101046.59;5072586;28;20085;-73
2023/04/21 11:07:10;;;;;;;15.38;13.45;;;;;;;14.06;88.31;101042.38;5072503;28;20523;-73
2023/04/21 11:09:36;;;;;;;23.65;15.27;;;;;;;14.11;80.09;101023.41;5072560;28;20055;-73
2023/04/21 11:12:10;;;;;;;15.75;12.57;;;;;;;14.25;82.44;101032.09;5072609;28;20103;-73
2023/04/21 11:14:46;;;;;;;14.95;11.15;;;;;;;14.36;80.59;101026.59;5072709;28;20036;-74
2023/04/21 11:17:17;;;;;;;12.40;11.15;;;;;;;14.47;76.59;101018.59;5072364;28;20024;-71
2023/04/21 11:19:46;;;;;;;13.00;11.60;;;;;;;14.46;74.42;101016.94;5072318;28;20075;-72
2023/04/21 11:22:12;;;;;;;13.05;11.50;;;;;;;14.42;75.29;101010.31;5089209;28;20107;-73
2023/04/21 11:24:43;;;;;;;12.75;11.02;;;;;;;14.58;75.50;101000.50;5092303;28;20127;-72
2023/04/21 11:27:29;;;;;;;10.82;9.73;;;;;;;14.65;76.81;100995.75;5082770;28;20467;-83
2023/04/21 11:29:56;;;;;;;11.52;10.32;;;;;;;14.61;72.14;100995.41;5090483;28;20482;-74
2023/04/21 11:32:22;;;;;;;12.32;10.63;;;;;;;14.44;69.16;100979.06;5088462;28;20028;-73
2023/04/21 11:34:47;;;;;;;12.02;9.93;;;;;;;14.42;70.47;100981.22;5082823;28;20367;-73
2023/04/21 11:37:22;;;;;;;10.60;8.63;;;;;;;14.52;71.71;100980.53;5090538;28;20040;-74
2023/04/21 11:39:47;;;;;;;10.80;9.60;;;;;;;14.66;71.74;100976.44;5090333;28;20027;-74
2023/04/21 11:42:20;;;;;;;10.70;9.60;;;;;;;14.96;73.39;100983.44;5092632;28;20028;-73
2023/04/21 11:44:46;;;;;;;12.68;10.82;;;;;;;14.81;71.60;100978.56;5091816;28;20027;-72
2023/04/21 11:47:21;;;;;;;12.45;11.15;;;;;;;14.73;72.60;100967.28;5092722;28;20045;-72
2023/04/21 11:49:50;;;;;;;14.15;12.43;;;;;;;14.68;71.49;100974.28;5092554;28;20059;-72
2023/04/21 11:52:27;;;;;;;12.48;11.20;;;;;;;14.61;73.36;100970.91;5090980;28;20111;-72
2023/04/21 11:55:00;;;;;;;12.63;10.18;;;;;;;14.50;71.18;100961.72;5092297;28;20032;-72
2023/04/21 11:57:29;;;;;;;10.73;9.40;;;;;;;14.69;70.99;100962.34;5079562;28;20028;-72
2023/04/21 12:00:00;;;;;;;9.85;8.77;;;;;;;14.88;71.08;100962.84;5071176;28;20025;-72
2023/04/21 12:02:30;;;;;;;10.80;9.70;;;;;;;15.08;71.41;100964.22;5070599;28;20104;-73
